Time;durP1;ratioP1;P1;durP2;ratioP2;P2;SDS_P1;SDS_P2;PMS_P1;PMS_P2;Temp;Humidity;BMP_temperature;BMP_pressure;BME280_temperature;BME280_humidity;BME280_pressure;Samples;Min_cycle;Max_cycle;Signal;HPM_P1;HPM_P2
2022/07/05 00:01:08;;;;;;;2.53;1.50;;;17.70;99.90;;;;;;5075417;28;20274;-58
2022/07/05 00:03:37;;;;;;;4.57;1.48;;;17.60;99.90;;;;;;5075679;28;20219;-58
2022/07/05 00:06:04;;;;;;;3.35;1.50;;;17.50;99.90;;;;;;5075968;28;20266;-58
2022/07/05 00:08:30;;;;;;;3.47;1.40;;;17.40;99.90;;;;;;5075759;28;20228;-58
2022/07/05 00:10:57;;;;;;;3.10;1.33;;;17.40;99.90;;;;;;5076105;28;20213;-59
2022/07/05 00:13:24;;;;;;;4.03;1.65;;;17.40;99.90;;;;;;5077061;28;20732;-58
2022/07/05 00:15:52;;;;;;;1.77;1.42;;;17.40;99.90;;;;;;5077413;28;20688;-59
2022/07/05 00:18:18;;;;;;;3.70;1.58;;;17.30;99.90;;;;;;5076624;28;20227;-58
2022/07/05 00:20:46;;;;;;;2.85;1.70;;;17.30;99.90;;;;;;5075252;28;20213;-58
2022/07/05 00:23:13;;;;;;;2.53;1.55;;;17.20;99.90;;;;;;5075115;28;20459;-58
2022/07/05 00:25:40;;;;;;;2.95;1.60;;;17.20;99.90;;;;;;5075207;28;20707;-58
2022/07/05 00:28:07;;;;;;;2.42;1.58;;;17.10;99.90;;;;;;5075000;28;20237;-58
2022/07/05 00:30:33;;;;;;;3.13;1.33;;;17.00;99.90;;;;;;5075286;28;20217;-58
2022/07/05 00:33:00;;;;;;;2.10;1.50;;;17.00;99.90;;;;;;5074809;28;20205;-58
2022/07/05 00:35:27;;;;;;;2.53;1.15;;;17.00;99.90;;;;;;5074505;28;20627;-59
2022/07/05 00:37:55;;;;;;;2.08;1.50;;;16.90;99.90;;;;;;5074201;28;20232;-58
2022/07/05 00:40:22;;;;;;;2.17;1.52;;;16.80;99.90;;;;;;5074474;28;20209;-58
2022/07/05 00:42:49;;;;;;;3.00;1.50;;;16.70;99.90;;;;;;5074632;28;20208;-58
2022/07/05 00:45:15;;;;;;;1.83;1.67;;;16.70;99.90;;;;;;5075638;28;20209;-58
2022/07/05 00:47:42;;;;;;;2.00;1.60;;;16.70;99.90;;;;;;5074668;28;20240;-59
2022/07/05 00:50:09;;;;;;;3.70;1.50;;;16.80;99.90;;;;;;5076385;28;20587;-59
2022/07/05 00:52:37;;;;;;;3.38;1.48;;;16.80;99.90;;;;;;5076883;28;20213;-59
2022/07/05 00:55:06;;;;;;;2.78;1.52;;;16.80;99.90;;;;;;5074983;28;20238;-58
2022/07/05 00:57:34;;;;;;;2.08;1.42;;;16.70;99.90;;;;;;5074145;28;20221;-59
2022/07/05 01:00:01;;;;;;;1.97;1.60;;;16.70;99.90;;;;;;5074529;28;20201;-59
2022/07/05 01:02:27;;;;;;;2.20;1.70;;;16.60;99.90;;;;;;5073700;28;20207;-59
2022/07/05 01:04:54;;;;;;;1.63;1.40;;;16.60;99.90;;;;;;5074218;28;20219;-58
2022/07/05 01:07:23;;;;;;;2.53;1.58;;;16.50;99.90;;;;;;5073831;28;20221;-59
2022/07/05 01:09:50;;;;;;;1.70;1.40;;;16.50;99.90;;;;;;5073744;28;20224;-58
2022/07/05 01:12:18;;;;;;;1.80;1.48;;;16.40;99.90;;;;;;5073916;28;20474;-58
2022/07/05 01:14:46;;;;;;;2.80;1.70;;;16.30;99.90;;;;;;5075221;28;20212;-58
2022/07/05 01:17:12;;;;;;;2.70;1.30;;;16.30;99.90;;;;;;5074173;28;20282;-58
2022/07/05 01:19:39;;;;;;;4.00;1.60;;;16.20;99.90;;;;;;5073864;28;20205;-58
2022/07/05 01:22:15;;;;;;;1.77;1.53;;;16.20;99.90;;;;;;5074157;28;20209;-58
2022/07/05 01:24:43;;;;;;;1.30;1.20;;;16.20;99.90;;;;;;5074713;28;20295;-58
2022/07/05 01:27:11;;;;;;;1.80;1.50;;;16.10;99.90;;;;;;5073584;28;20270;-58
2022/07/05 01:29:37;;;;;;;2.07;1.40;;;16.10;99.90;;;;;;5073645;28;20727;-58
2022/07/05 01:32:05;;;;;;;3.20;1.50;;;16.10;99.90;;;;;;5073900;28;20215;-56
2022/07/05 01:34:32;;;;;;;2.70;1.40;;;16.10;99.90;;;;;;5073820;28;20213;-58
2022/07/05 01:36:58;;;;;;;1.95;1.42;;;16.10;99.90;;;;;;5074051;28;20282;-58
2022/07/05 01:39:25;;;;;;;2.43;1.53;;;16.10;99.90;;;;;;5073782;28;20201;-58
2022/07/05 01:41:54;;;;;;;2.87;1.30;;;16.20;99.90;;;;;;5073804;28;20236;-58
2022/07/05 01:44:20;;;;;;;2.73;1.27;;;16.20;99.90;;;;;;5075578;28;20222;-58
2022/07/05 01:46:51;;;;;;;2.00;1.50;;;16.20;99.90;;;;;;5074033;28;20232;-58
2022/07/05 01:49:18;;;;;;;4.97;1.70;;;16.20;99.90;;;;;;5074271;28;20228;-58
2022/07/05 01:51:50;;;;;;;5.70;1.60;;;16.20;99.90;;;;;;5075202;28;20673;-58
2022/07/05 01:54:17;;;;;;;5.50;1.90;;;16.30;99.90;;;;;;5074982;28;20212;-58
2022/07/05 01:56:44;;;;;;;3.63;1.83;;;16.30;99.90;;;;;;5074503;28;20705;-58
2022/07/05 01:59:12;;;;;;;6.23;2.23;;;16.40;99.90;;;;;;5074095;28;20197;-57
2022/07/05 02:01:40;;;;;;;2.50;2.10;;;16.40;99.90;;;;;;5073822;28;20212;-58
2022/07/05 02:04:08;;;;;;;2.13;1.80;;;16.40;99.90;;;;;;5074269;28;20224;-58
2022/07/05 02:06:36;;;;;;;3.43;1.80;;;16.40;99.90;;;;;;5074238;28;20225;-58
2022/07/05 02:09:05;;;;;;;4.03;1.60;;;16.40;99.90;;;;;;5073385;28;20229;-58
2022/07/05 02:11:31;;;;;;;4.17;1.70;;;16.40;99.90;;;;;;5073307;28;20295;-58
2022/07/05 02:13:58;;;;;;;2.40;1.77;;;16.40;99.90;;;;;;5074180;28;20209;-58
2022/07/05 02:16:27;;;;;;;3.78;1.55;;;16.30;99.90;;;;;;5073655;28;20209;-58
2022/07/05 02:18:54;;;;;;;4.03;1.67;;;16.20;99.90;;;;;;5073261;28;20196;-59
2022/07/05 02:21:21;;;;;;;1.63;1.27;;;16.20;99.90;;;;;;5073349;28;20201;-58
2022/07/05 02:23:48;;;;;;;2.57;1.80;;;16.10;99.90;;;;;;5073656;28;20213;-59
2022/07/05 02:26:15;;;;;;;5.80;1.70;;;16.10;99.90;;;;;;5073137;28;20700;-58
2022/07/05 02:28:42;;;;;;;3.63;1.60;;;16.00;99.90;;;;;;5072985;28;20217;-58
2022/07/05 02:31:09;;;;;;;3.20;1.40;;;15.80;99.90;;;;;;5073802;28;20664;-58
2022/07/05 02:33:37;;;;;;;2.57;1.80;;;15.80;99.90;;;;;;5073670;28;20211;-58
2022/07/05 02:36:09;;;;;;;2.33;1.73;;;15.80;99.90;;;;;;5073465;28;20208;-58
2022/07/05 02:38:36;;;;;;;4.90;2.73;;;15.70;99.90;;;;;;5073153;28;20228;-58
2022/07/05 02:41:05;;;;;;;3.23;2.37;;;15.70;99.90;;;;;;5074140;28;20205;-58
2022/07/05 02:43:32;;;;;;;5.10;1.87;;;15.80;99.90;;;;;;5075696;28;20262;-58
2022/07/05 02:45:59;;;;;;;3.73;2.00;;;15.80;99.90;;;;;;5074136;28;20642;-57
2022/07/05 02:48:26;;;;;;;4.67;2.27;;;15.70;99.90;;;;;;5072615;28;20232;-57
2022/07/05 02:50:54;;;;;;;3.87;2.00;;;15.70;99.90;;;;;;5073187;28;20209;-58
2022/07/05 02:53:20;;;;;;;3.00;1.63;;;15.60;99.90;;;;;;5073066;28;20209;-58
2022/07/05 02:55:47;;;;;;;3.27;1.70;;;15.50;99.90;;;;;;5073013;28;20424;-58
2022/07/05 02:58:14;;;;;;;2.40;1.70;;;15.40;99.90;;;;;;5072878;28;20228;-58
2022/07/05 03:00:40;;;;;;;4.23;1.50;;;15.40;99.90;;;;;;5073116;28;20209;-57
2022/07/05 03:03:07;;;;;;;3.40;1.60;;;15.30;99.90;;;;;;5073315;28;20747;-57
2022/07/05 03:05:34;;;;;;;2.10;1.33;;;15.20;99.90;;;;;;5073316;28;20211;-58
2022/07/05 03:08:02;;;;;;;2.80;1.57;;;15.30;99.90;;;;;;5072894;28;20228;-57
2022/07/05 03:10:28;;;;;;;4.83;2.17;;;15.30;99.90;;;;;;5072739;28;20231;-58
2022/07/05 03:12:55;;;;;;;3.77;1.80;;;15.20;99.90;;;;;;5073315;28;20614;-58
2022/07/05 03:15:22;;;;;;;1.87;1.50;;;15.30;99.90;;;;;;5075411;28;20212;-58
2022/07/05 03:17:49;;;;;;;2.23;1.50;;;15.30;99.90;;;;;;5073254;28;20225;-59
2022/07/05 03:20:15;;;;;;;1.80;1.50;;;15.30;99.90;;;;;;5072986;28;20212;-58
2022/07/05 03:22:42;;;;;;;2.00;1.70;;;15.30;99.90;;;;;;5072600;28;20212;-58
2022/07/05 03:25:10;;;;;;;5.27;1.60;;;15.30;99.90;;;;;;5073169;28;20205;-58
2022/07/05 03:27:37;;;;;;;4.23;2.70;;;15.30;99.90;;;;;;5073553;28;20233;-57
2022/07/05 03:30:05;;;;;;;5.40;2.87;;;15.30;99.90;;;;;;5073481;28;20224;-56
2022/07/05 03:32:31;;;;;;;3.50;1.70;;;15.30;99.90;;;;;;5073791;28;20201;-58
2022/07/05 03:34:58;;;;;;;3.23;1.70;;;15.30;99.90;;;;;;5075227;28;20262;-58
2022/07/05 03:37:25;;;;;;;3.33;1.67;;;15.20;99.90;;;;;;5091954;22;20713;-57
2022/07/05 03:39:51;;;;;;;4.23;1.70;;;15.10;99.90;;;;;;5054684;28;20201;-60
2022/07/05 03:42:19;;;;;;;2.43;2.00;;;15.10;99.90;;;;;;5054559;28;20700;-57
2022/07/05 03:44:46;;;;;;;4.13;2.37;;;15.00;99.90;;;;;;5054749;28;20619;-58
2022/07/05 03:47:14;;;;;;;3.10;2.20;;;15.10;99.90;;;;;;5054606;28;20278;-57
2022/07/05 03:49:41;;;;;;;3.97;2.40;;;15.10;99.90;;;;;;5054187;28;20229;-57
2022/07/05 03:52:07;;;;;;;2.40;1.73;;;15.20;99.90;;;;;;5054542;28;20630;-57
2022/07/05 03:54:34;;;;;;;6.90;1.80;;;15.20;99.90;;;;;;5054611;28;20205;-57
2022/07/05 03:57:01;;;;;;;4.60;2.03;;;15.10;99.90;;;;;;5054305;28;20692;-58
2022/07/05 03:59:29;;;;;;;2.63;1.73;;;15.10;99.90;;;;;;5054264;28;20206;-58
2022/07/05 04:01:55;;;;;;;2.47;1.70;;;15.20;99.90;;;;;;5054525;28;20213;-57
2022/07/05 04:04:22;;;;;;;4.60;1.70;;;15.20;99.90;;;;;;5054354;28;20208;-57
2022/07/05 04:06:49;;;;;;;2.53;1.60;;;15.20;99.90;;;;;;5054282;28;20713;-57
2022/07/05 04:09:16;;;;;;;2.70;1.70;;;15.20;99.90;;;;;;5054162;28;20225;-57
2022/07/05 04:11:42;;;;;;;4.73;1.77;;;15.20;99.90;;;;;;5054325;28;20202;-57
2022/07/05 04:14:09;;;;;;;12.20;7.63;;;15.30;99.90;;;;;;5054473;28;20209;-58
2022/07/05 04:16:38;;;;;;;4.93;1.80;;;15.30;99.90;;;;;;5054430;28;20205;-58
2022/07/05 04:19:04;;;;;;;5.23;1.70;;;15.40;99.90;;;;;;5053909;28;20210;-59
2022/07/05 04:21:31;;;;;;;2.70;1.60;;;15.40;99.90;;;;;;5054200;28;20263;-59
2022/07/05 04:23:58;;;;;;;5.30;1.73;;;15.40;99.90;;;;;;5053900;28;20245;-59
2022/07/05 04:26:25;;;;;;;5.27;2.00;;;15.40;99.90;;;;;;5054005;28;20255;-59
2022/07/05 04:28:51;;;;;;;5.10;1.80;;;15.50;99.90;;;;;;5053633;28;20230;-59
2022/07/05 04:31:18;;;;;;;3.23;2.00;;;15.60;99.90;;;;;;5053741;28;20624;-58
2022/07/05 04:33:46;;;;;;;2.67;1.80;;;15.70;99.90;;;;;;5053636;28;20289;-58
2022/07/05 04:36:13;;;;;;;3.00;2.20;;;15.80;99.90;;;;;;5053796;28;20205;-58
2022/07/05 04:38:40;;;;;;;3.07;2.20;;;16.00;99.90;;;;;;5053259;28;20242;-59
2022/07/05 04:41:06;;;;;;;2.43;2.03;;;16.10;99.90;;;;;;5053744;28;20209;-59
2022/07/05 04:43:34;;;;;;;3.93;1.90;;;16.20;99.90;;;;;;5053631;28;20217;-59
2022/07/05 04:46:00;;;;;;;2.60;1.87;;;16.40;99.90;;;;;;5053258;28;20233;-59
2022/07/05 04:48:27;;;;;;;2.43;1.80;;;16.50;99.90;;;;;;5053290;28;20225;-57
2022/07/05 04:50:55;;;;;;;3.57;2.07;;;16.70;99.90;;;;;;5053516;28;20230;-57
2022/07/05 04:53:22;;;;;;;4.20;2.10;;;16.90;99.90;;;;;;5053436;28;20205;-58
2022/07/05 04:55:49;;;;;;;4.13;2.10;;;17.30;99.90;;;;;;5053248;28;20210;-59
2022/07/05 04:58:15;;;;;;;4.80;1.98;;;17.90;99.90;;;;;;5053037;28;20225;-58
2022/07/05 05:00:42;;;;;;;3.50;1.38;;;19.20;99.90;;;;;;5053058;28;20615;-58
2022/07/05 05:03:09;;;;;;;2.63;1.10;;;20.70;99.90;;;;;;5053237;28;20628;-58
2022/07/05 05:05:36;;;;;;;6.53;1.92;;;22.40;99.90;;;;;;5053368;28;20206;-58
2022/07/05 05:08:04;;;;;;;2.25;1.48;;;24.00;99.90;;;;;;5052939;28;20232;-59
2022/07/05 05:10:32;;;;;;;1.75;1.15;;;25.50;99.90;;;;;;5053042;28;20236;-58
2022/07/05 05:12:58;;;;;;;3.95;1.38;;;26.60;99.60;;;;;;5052980;28;20669;-58
2022/07/05 05:15:25;;;;;;;2.50;1.33;;;27.60;96.20;;;;;;5053016;28;20551;-58
2022/07/05 05:17:52;;;;;;;2.15;1.50;;;28.40;93.30;;;;;;5053054;28;20232;-58
2022/07/05 05:20:20;;;;;;;3.00;1.50;;;29.30;91.30;;;;;;5052712;28;20204;-58
2022/07/05 05:22:47;;;;;;;4.90;1.80;;;30.40;87.60;;;;;;5052748;28;20210;-58
2022/07/05 05:25:16;;;;;;;4.55;1.80;;;31.40;81.40;;;;;;5052780;28;20621;-58
2022/07/05 05:27:43;;;;;;;2.75;1.70;;;32.30;76.40;;;;;;5052509;28;20230;-59
2022/07/05 05:30:11;;;;;;;7.50;2.13;;;32.70;71.30;;;;;;5052323;28;20275;-57
2022/07/05 05:32:38;;;;;;;3.88;1.75;;;32.00;71.70;;;;;;5052714;28;20275;-58
2022/07/05 05:35:06;;;;;;;4.85;2.13;;;31.10;74.00;;;;;;5052585;28;20206;-57
2022/07/05 05:37:46;;;;;;;2.60;1.63;;;30.50;77.00;;;;;;5052375;28;20268;-58
2022/07/05 05:40:12;;;;;;;7.68;3.15;;;30.70;76.20;;;;;;5052456;28;20251;-58
2022/07/05 05:42:40;;;;;;;4.50;2.05;;;31.40;75.10;;;;;;5052548;28;20266;-57
2022/07/05 05:45:08;;;;;;;2.97;1.98;;;32.40;71.40;;;;;;5052652;28;20622;-57
2022/07/05 05:47:42;;;;;;;8.00;2.03;;;33.70;67.00;;;;;;5052396;28;20225;-57
2022/07/05 05:50:09;;;;;;;2.78;1.67;;;34.60;64.80;;;;;;5052090;28;20590;-57
2022/07/05 05:52:36;;;;;;;3.95;2.03;;;35.80;60.80;;;;;;5052235;28;20216;-57
2022/07/05 05:55:05;;;;;;;2.03;1.80;;;36.40;58.00;;;;;;5052269;28;20206;-57
2022/07/05 05:57:31;;;;;;;3.35;1.90;;;36.20;57.80;;;;;;5051707;28;20230;-57
2022/07/05 06:00:00;;;;;;;3.70;2.10;;;35.40;58.10;;;;;;5052120;28;20586;-57
2022/07/05 06:02:27;;;;;;;2.83;1.58;;;34.30;60.00;;;;;;5051967;28;20617;-57
2022/07/05 06:04:53;;;;;;;4.85;1.67;;;34.60;59.70;;;;;;5051961;28;20210;-57
2022/07/05 06:07:20;;;;;;;7.15;1.98;;;35.60;57.90;;;;;;5052345;28;20712;-57
2022/07/05 06:09:47;;;;;;;4.07;2.10;;;36.90;55.20;;;;;;5049232;28;20225;-58
2022/07/05 06:12:14;;;;;;;2.88;1.70;;;38.10;53.10;;;;;;5050550;28;20212;-58
2022/07/05 06:14:41;;;;;;;4.63;1.65;;;38.90;50.20;;;;;;5050946;28;20213;-59
2022/07/05 06:17:09;;;;;;;5.80;1.80;;;38.90;49.60;;;;;;5050738;28;20228;-59
2022/07/05 06:19:36;;;;;;;9.02;2.10;;;37.60;51.20;;;;;;5050398;28;20622;-58
2022/07/05 06:22:02;;;;;;;6.47;2.33;;;37.30;51.30;;;;;;5050757;28;20236;-59
2022/07/05 06:24:29;;;;;;;3.25;1.50;;;37.40;51.40;;;;;;5050671;28;20673;-61
2022/07/05 06:26:56;;;;;;;5.10;2.65;;;37.80;50.60;;;;;;5050805;28;20302;-59
2022/07/05 06:29:22;;;;;;;4.45;2.08;;;38.50;49.50;;;;;;5050722;28;20210;-59
2022/07/05 06:31:49;;;;;;;2.08;1.50;;;39.20;48.20;;;;;;5050951;28;20213;-59
2022/07/05 06:34:17;;;;;;;5.90;2.10;;;39.80;47.30;;;;;;5051052;28;20209;-59
2022/07/05 06:36:45;;;;;;;3.55;2.10;;;39.30;48.10;;;;;;5050445;28;20267;-57
2022/07/05 06:39:12;;;;;;;5.32;2.00;;;39.60;48.30;;;;;;5051013;28;20209;-58
2022/07/05 06:41:38;;;;;;;2.50;1.73;;;40.30;46.30;;;;;;5050989;28;20260;-59
2022/07/05 06:44:05;;;;;;;3.45;1.70;;;38.70;47.90;;;;;;5051103;28;20216;-59
2022/07/05 06:46:32;;;;;;;2.45;1.60;;;36.80;50.50;;;;;;5050421;28;20220;-56
2022/07/05 06:48:58;;;;;;;3.97;1.40;;;36.10;50.50;;;;;;5050117;28;20586;-56
2022/07/05 06:51:26;;;;;;;2.83;1.42;;;35.40;52.00;;;;;;5050728;28;20299;-56
2022/07/05 06:53:53;;;;;;;2.72;1.50;;;36.40;50.00;;;;;;5050765;28;20217;-56
2022/07/05 06:56:20;;;;;;;4.53;1.30;;;37.50;46.90;;;;;;5050662;28;20209;-58
2022/07/05 06:58:46;;;;;;;3.65;1.42;;;36.90;48.10;;;;;;5050183;28;20226;-57
2022/07/05 07:01:13;;;;;;;3.28;1.20;;;36.50;47.30;;;;;;5050227;28;20202;-58
2022/07/05 07:03:40;;;;;;;4.10;1.30;;;36.30;48.40;;;;;;5050430;28;20212;-57
2022/07/05 07:06:07;;;;;;;4.05;1.40;;;35.90;48.60;;;;;;5050313;28;20684;-57
2022/07/05 07:11:19;;;;;;;3.38;1.10;;;34.80;48.60;;;;;;5054579;28;20232;-58
2022/07/05 07:13:46;;;;;;;1.77;0.93;;;36.40;46.80;;;;;;5053895;28;20264;-58
2022/07/05 07:16:12;;;;;;;6.18;1.30;;;36.90;45.80;;;;;;5053909;28;20205;-60
2022/07/05 07:18:39;;;;;;;2.05;1.15;;;38.00;44.90;;;;;;5053666;28;20520;-60
2022/07/05 07:21:06;;;;;;;2.33;1.30;;;39.30;44.20;;;;;;5054036;28;20201;-56
2022/07/05 07:23:35;;;;;;;2.58;1.40;;;40.20;42.00;;;;;;5054368;28;20209;-58
2022/07/05 07:26:02;;;;;;;5.35;1.30;;;39.30;43.70;;;;;;5053468;28;20651;-56
2022/07/05 07:28:29;;;;;;;2.00;1.25;;;39.80;42.90;;;;;;5053623;28;20247;-56
2022/07/05 07:30:56;;;;;;;3.72;1.10;;;40.50;42.00;;;;;;5053985;28;20784;-57
2022/07/05 07:33:23;;;;;;;1.80;1.20;;;41.20;40.60;;;;;;5054726;28;20591;-58
2022/07/05 07:35:49;;;;;;;2.20;1.35;;;41.70;39.90;;;;;;5054926;28;20208;-58
2022/07/05 07:38:16;;;;;;;3.33;1.13;;;42.30;38.80;;;;;;5054366;28;20233;-57
2022/07/05 07:40:44;;;;;;;2.63;0.88;;;42.60;38.90;;;;;;5054464;28;20255;-57
2022/07/05 07:43:11;;;;;;;5.35;1.10;;;43.20;38.50;;;;;;5054622;28;20212;-58
2022/07/05 07:45:37;;;;;;;2.22;1.23;;;44.00;37.60;;;;;;5056497;28;20665;-58
2022/07/05 07:48:05;;;;;;;3.60;1.02;;;44.60;36.50;;;;;;5056281;28;20239;-61
2022/07/05 07:50:31;;;;;;;2.83;1.02;;;44.80;35.90;;;;;;5056091;28;20229;-58
2022/07/05 07:52:58;;;;;;;2.80;0.82;;;45.30;34.80;;;;;;5056204;28;20209;-58
2022/07/05 07:55:25;;;;;;;1.67;1.00;;;45.50;34.20;;;;;;5056079;28;20255;-57
2022/07/05 07:57:53;;;;;;;2.17;1.27;;;45.50;34.30;;;;;;5054841;28;20309;-58
2022/07/05 08:00:20;;;;;;;1.77;0.98;;;45.60;34.80;;;;;;5054779;28;20291;-58
2022/07/05 08:02:47;;;;;;;1.67;1.00;;;45.80;34.40;;;;;;5055033;28;20208;-56
2022/07/05 08:05:13;;;;;;;3.88;1.70;;;46.00;34.10;;;;;;5054570;28;20213;-57
2022/07/05 08:07:40;;;;;;;3.45;1.77;;;45.90;33.80;;;;;;5054106;28;20242;-57
2022/07/05 08:10:08;;;;;;;4.53;1.75;;;44.70;35.70;;;;;;5054200;28;20209;-57
2022/07/05 08:12:35;;;;;;;3.33;1.50;;;44.30;35.30;;;;;;5054193;28;20859;-57
2022/07/05 08:15:04;;;;;;;4.68;1.95;;;44.30;35.50;;;;;;5054208;28;20209;-55
2022/07/05 08:17:30;;;;;;;3.92;1.80;;;44.40;35.20;;;;;;5053970;28;20278;-57
2022/07/05 08:22:41;;;;;;;2.55;1.80;;;44.80;35.00;;;;;;5054077;28;20227;-57
2022/07/05 08:25:08;;;;;;;3.22;1.60;;;44.80;34.70;;;;;;5054155;28;20232;-57
2022/07/05 08:27:35;;;;;;;4.68;1.60;;;44.70;34.50;;;;;;5054075;28;20228;-57
2022/07/05 08:30:04;;;;;;;3.10;1.38;;;44.60;34.30;;;;;;5053434;28;20685;-57
2022/07/05 08:32:31;;;;;;;3.97;1.45;;;44.50;34.70;;;;;;5053895;28;20236;-57
2022/07/05 08:34:57;;;;;;;3.53;1.30;;;43.70;35.60;;;;;;5053594;28;20205;-57
2022/07/05 08:37:24;;;;;;;4.55;1.70;;;43.00;36.10;;;;;;5053350;28;20240;-57
2022/07/05 08:39:51;;;;;;;4.25;1.85;;;42.80;36.00;;;;;;5053541;28;20201;-57
2022/07/05 08:42:19;;;;;;;4.38;2.00;;;41.20;37.10;;;;;;5053612;28;20209;-56
2022/07/05 08:44:50;;;;;;;3.97;1.40;;;39.30;39.70;;;;;;5053564;28;20205;-57
2022/07/05 08:47:18;;;;;;;4.88;1.55;;;39.50;39.40;;;;;;5053465;28;20232;-57
2022/07/05 08:49:48;;;;;;;2.88;1.60;;;40.20;38.50;;;;;;5053236;28;20216;-57
2022/07/05 08:52:16;;;;;;;5.20;1.70;;;40.30;38.90;;;;;;5053526;28;20231;-56
2022/07/05 08:54:43;;;;;;;3.00;1.65;;;40.20;38.00;;;;;;5053665;28;20279;-57
2022/07/05 08:57:09;;;;;;;3.92;2.38;;;39.70;38.90;;;;;;5050112;28;20226;-60
2022/07/05 08:59:36;;;;;;;3.17;1.70;;;38.60;40.20;;;;;;5051834;28;20297;-62
2022/07/05 09:02:03;;;;;;;4.90;1.40;;;37.40;41.90;;;;;;5051742;28;20213;-60
2022/07/05 09:04:38;;;;;;;6.22;1.58;;;36.20;42.70;;;;;;5052141;28;20559;-58
2022/07/05 09:07:07;;;;;;;3.17;2.00;;;34.90;44.10;;;;;;5051805;28;20315;-58
2022/07/05 09:09:35;;;;;;;4.85;1.58;;;33.90;46.00;;;;;;5052059;28;20214;-58
2022/07/05 09:12:02;;;;;;;3.55;1.52;;;32.70;48.00;;;;;;5052023;28;20222;-58
2022/07/05 09:14:28;;;;;;;2.47;1.42;;;31.70;49.40;;;;;;5051760;28;20205;-61
2022/07/05 09:16:57;;;;;;;3.22;1.67;;;30.50;51.60;;;;;;5051959;28;20221;-60
2022/07/05 09:19:23;;;;;;;3.50;1.50;;;29.60;52.80;;;;;;5051433;28;20699;-61
2022/07/05 09:22:02;;;;;;;4.30;1.70;;;29.20;53.90;;;;;;5051976;28;20213;-62
2022/07/05 09:24:30;;;;;;;4.60;1.70;;;28.90;53.80;;;;;;5052101;28;20677;-59
2022/07/05 09:27:02;;;;;;;3.88;1.60;;;28.60;54.00;;;;;;5051441;28;20311;-58
2022/07/05 09:29:30;;;;;;;4.07;1.60;;;27.90;55.10;;;;;;5051428;28;20236;-59
2022/07/05 09:31:57;;;;;;;3.42;1.45;;;27.30;55.90;;;;;;5050818;28;20228;-63
2022/07/05 09:34:23;;;;;;;4.88;1.90;;;26.80;56.70;;;;;;5051995;28;20206;-60
2022/07/05 09:39:39;;;;;;;3.38;1.80;;;26.10;60.30;;;;;;5090841;28;20636;-62
2022/07/05 09:42:11;;;;;;;5.32;1.70;;;26.00;60.80;;;;;;5093671;28;20205;-61
2022/07/05 09:44:38;;;;;;;5.18;1.65;;;26.00;61.10;;;;;;5095088;28;20204;-61
2022/07/05 09:47:10;;;;;;;2.65;1.50;;;26.00;61.90;;;;;;5092742;28;20227;-61
2022/07/05 09:49:37;;;;;;;4.30;1.60;;;26.10;60.30;;;;;;5092977;28;20224;-61
2022/07/05 09:52:05;;;;;;;4.82;1.50;;;26.30;59.40;;;;;;5093005;28;20314;-60
2022/07/05 09:54:33;;;;;;;3.30;1.50;;;26.70;59.10;;;;;;5093494;28;20227;-61
2022/07/05 09:57:00;;;;;;;4.68;1.23;;;26.80;59.30;;;;;;5093757;28;20692;-60
2022/07/05 09:59:26;;;;;;;2.45;1.20;;;26.70;58.20;;;;;;5093331;28;20207;-61
2022/07/05 10:01:53;;;;;;;5.30;0.85;;;26.60;58.80;;;;;;5092668;28;20584;-61
2022/07/05 10:04:20;;;;;;;2.80;1.10;;;26.30;59.20;;;;;;5092642;28;20212;-60
2022/07/05 10:06:47;;;;;;;3.83;1.15;;;26.20;59.10;;;;;;5093155;28;20197;-61
2022/07/05 10:09:15;;;;;;;2.30;1.05;;;26.30;57.90;;;;;;5092500;28;20204;-61
2022/07/05 10:11:44;;;;;;;7.13;1.20;;;26.40;59.30;;;;;;5093105;28;20302;-61
2022/07/05 10:14:15;;;;;;;5.30;1.10;;;26.50;59.60;;;;;;5093406;28;20226;-60
2022/07/05 10:16:46;;;;;;;6.80;1.30;;;26.70;59.40;;;;;;5092421;28;20196;-62
2022/07/05 10:19:16;;;;;;;5.35;1.13;;;26.80;59.10;;;;;;5094273;28;20267;-57
2022/07/05 10:21:44;;;;;;;2.45;1.10;;;26.80;58.80;;;;;;5093974;28;20204;-59
2022/07/05 10:24:12;;;;;;;5.45;0.85;;;27.00;58.80;;;;;;5093631;28;20206;-62
2022/07/05 10:26:41;;;;;;;4.20;0.95;;;27.10;56.50;;;;;;5092791;28;20277;-62
2022/07/05 10:29:11;;;;;;;2.08;0.90;;;27.10;56.20;;;;;;5092621;28;20304;-63
2022/07/05 10:31:38;;;;;;;4.28;0.80;;;27.10;54.80;;;;;;5092919;28;20216;-63
2022/07/05 10:34:08;;;;;;;0.77;0.75;;;27.00;54.00;;;;;;5092834;28;20227;-63
2022/07/05 10:36:35;;;;;;;4.25;1.30;;;26.80;54.30;;;;;;5092827;28;20204;-63
2022/07/05 10:39:03;;;;;;;2.95;1.13;;;26.80;54.50;;;;;;5092298;28;20719;-64
2022/07/05 10:41:31;;;;;;;2.22;0.98;;;27.10;53.20;;;;;;5092790;28;20207;-63
2022/07/05 10:43:59;;;;;;;3.50;1.00;;;27.20;51.90;;;;;;5095061;28;20262;-63
2022/07/05 10:46:38;;;;;;;3.85;1.50;;;27.30;52.30;;;;;;5097167;28;20758;-63
2022/07/05 10:49:14;;;;;;;1.83;0.70;;;27.40;52.60;;;;;;5096273;28;20259;-63
2022/07/05 10:51:41;;;;;;;3.22;1.00;;;27.70;51.40;;;;;;5096627;28;20634;-63
2022/07/05 10:54:08;;;;;;;5.63;0.98;;;27.90;52.60;;;;;;5096695;28;20251;-62
2022/07/05 10:56:36;;;;;;;2.47;1.35;;;28.10;52.80;;;;;;5097023;28;20208;-63
2022/07/05 10:59:09;;;;;;;2.88;0.90;;;28.30;52.90;;;;;;5096640;28;20224;-65
2022/07/05 11:01:41;;;;;;;1.17;0.80;;;28.30;53.50;;;;;;5096885;28;20675;-63
2022/07/05 11:04:26;;;;;;;4.55;1.27;;;28.50;53.30;;;;;;5097004;28;20200;-63
2022/07/05 11:06:53;;;;;;;5.78;1.25;;;28.50;54.20;;;;;;5097362;28;20274;-63
2022/07/05 11:09:21;;;;;;;2.92;0.95;;;28.60;54.40;;;;;;5096724;28;20204;-64
2022/07/05 11:12:08;;;;;;;2.78;1.10;;;28.70;54.10;;;;;;5097101;28;20234;-62
2022/07/05 11:14:53;;;;;;;2.53;1.00;;;28.70;54.30;;;;;;5096831;28;20207;-63
2022/07/05 11:17:29;;;;;;;3.92;1.17;;;28.80;52.20;;;;;;5096686;28;20274;-63
2022/07/05 11:20:11;;;;;;;1.70;0.90;;;28.80;52.30;;;;;;5096630;28;20203;-63
2022/07/05 11:22:41;;;;;;;1.70;1.00;;;29.00;52.30;;;;;;5096960;28;20200;-63
2022/07/05 11:25:10;;;;;;;5.45;3.22;;;29.20;52.60;;;;;;5096435;28;20269;-63
2022/07/05 11:27:37;;;;;;;2.42;0.90;;;29.40;51.80;;;;;;5096436;28;20252;-63
2022/07/05 11:30:22;;;;;;;5.25;1.10;;;29.40;51.30;;;;;;5095787;28;20205;-64
2022/07/05 11:32:50;;;;;;;4.80;1.08;;;29.10;51.90;;;;;;5096375;28;20227;-64
2022/07/05 11:35:18;;;;;;;6.88;1.50;;;28.70;52.50;;;;;;5096309;28;20219;-62
2022/07/05 11:38:04;;;;;;;2.92;0.95;;;28.50;53.10;;;;;;5095988;28;20235;-62
2022/07/05 11:40:33;;;;;;;3.58;1.02;;;28.40;53.00;;;;;;5096857;28;20203;-64
2022/07/05 11:43:02;;;;;;;2.72;0.80;;;28.50;52.40;;;;;;5097159;28;20200;-64
2022/07/05 11:45:30;;;;;;;4.30;1.20;;;28.70;52.00;;;;;;5096576;28;20226;-63
2022/07/05 11:47:58;;;;;;;4.32;1.17;;;29.00;51.50;;;;;;5096428;28;20232;-64
2022/07/05 11:50:30;;;;;;;1.73;0.90;;;29.20;50.90;;;;;;5096500;28;20234;-64
2022/07/05 11:52:58;;;;;;;2.10;0.90;;;29.20;50.40;;;;;;5096675;28;20228;-63
2022/07/05 11:55:27;;;;;;;4.65;0.90;;;29.40;51.00;;;;;;5095666;28;20208;-64
2022/07/05 11:57:55;;;;;;;2.22;1.02;;;29.70;49.70;;;;;;5097335;28;20224;-64
2022/07/05 12:00:30;;;;;;;2.50;0.88;;;30.00;48.80;;;;;;5098319;28;20671;-66
2022/07/05 12:02:58;;;;;;;3.22;1.15;;;30.20;49.00;;;;;;5096164;28;20220;-64
2022/07/05 12:05:31;;;;;;;4.07;0.88;;;30.30;49.30;;;;;;5097017;28;20208;-63
2022/07/05 12:07:58;;;;;;;3.13;0.75;;;30.30;48.20;;;;;;5096036;28;20316;-63
2022/07/05 12:13:10;;;;;;;3.55;1.65;;;30.40;49.00;;;;;;5096122;28;20624;-65
2022/07/05 12:15:37;;;;;;;5.03;1.02;;;30.30;48.40;;;;;;5096228;28;20710;-64
2022/07/05 12:18:08;;;;;;;1.15;0.88;;;30.20;48.60;;;;;;5095037;28;20232;-64
2022/07/05 12:20:36;;;;;;;4.03;1.27;;;30.30;47.90;;;;;;5095132;28;20204;-64
2022/07/05 12:23:03;;;;;;;3.85;0.95;;;30.20;47.30;;;;;;5095144;28;20207;-65
2022/07/05 12:25:32;;;;;;;2.33;0.88;;;30.30;47.40;;;;;;5095109;28;20211;-63
2022/07/05 12:28:03;;;;;;;3.05;0.80;;;30.30;47.30;;;;;;5095253;28;20416;-64
2022/07/05 12:30:31;;;;;;;2.78;0.77;;;30.30;46.00;;;;;;5094984;28;20226;-64
2022/07/05 12:32:59;;;;;;;2.65;0.80;;;30.10;47.10;;;;;;5095331;28;20727;-65
2022/07/05 12:35:36;;;;;;;1.83;1.50;;;30.00;46.90;;;;;;5094884;28;20702;-63
2022/07/05 12:38:04;;;;;;;4.40;1.00;;;30.00;47.60;;;;;;5095023;28;20368;-64
2022/07/05 12:40:32;;;;;;;1.40;0.93;;;30.10;47.30;;;;;;5095121;28;20215;-65
2022/07/05 12:43:06;;;;;;;3.72;0.90;;;30.20;46.80;;;;;;5094604;28;20211;-63
2022/07/05 12:45:34;;;;;;;1.63;0.85;;;30.30;48.60;;;;;;5094674;28;20214;-64
2022/07/05 12:48:02;;;;;;;2.10;0.75;;;30.30;47.90;;;;;;5094883;28;20707;-64
2022/07/05 12:50:45;;;;;;;1.73;0.82;;;30.30;48.80;;;;;;5094417;28;20204;-65
2022/07/05 12:58:49;;;;;;;2.03;0.73;;;30.30;47.40;;;;;;5095939;28;20315;-63
2022/07/05 13:01:24;;;;;;;3.25;0.88;;;30.50;46.60;;;;;;5100451;28;20381;-63
2022/07/05 13:04:03;;;;;;;3.65;0.90;;;30.60;46.00;;;;;;5106247;28;20212;-65
2022/07/05 13:06:46;;;;;;;2.65;0.90;;;30.60;46.40;;;;;;5104997;28;20200;-64
2022/07/05 13:09:15;;;;;;;1.65;0.90;;;30.80;46.80;;;;;;5103799;28;20634;-65